Terminal Aerodrome Forecast
Issued by NWS

Home | Current Version | Previous Version | Text Only | Print | Product List | Glossary On
Versions: 1 2 3 4 5 6 7 8 9 10 11 12 13 14 15
048
FTUS45 KRIW 281723
TAFJAC
TAF
KJAC 281723Z 2818/2918 36011KT P6SM FEW060
     FM290100 01006KT P6SM SCT200
     FM291600 19006KT P6SM SCT110 BKN200
      AMD LTD TO CLD VIS AND WIND=

USA.gov is the U.S. government's official web portal to all federal, state and local government web resources and services.